Dayton Valley, NV

9:31 PM PDT on July 28, 2016 (GMT -0700)
Dayton Valley Golf Course | | Change Station
Active Advisory: Fire Weather Warning

Elev 4360 ft 39.25 °N, 119.55 °W | Updated 2 seconds ago

Scattered Clouds
Scattered Clouds
82.5 °F
Feels Like 81 °F
N
0.0
Wind Variable Wind from WSW
Gusts 1.0 mph

Today
High -- | Low -- °F
--% Chance of Precip.
Yesterday
High -- | Low -- °F
Precip. -- in
Pressure 30.12 in
Visibility 10.0 miles
Clouds Scattered Clouds 12000 ft
Heat Index 81 °F
Dew Point 50 °F
Humidity 33%
Rainfall 0.00 in
Snow Depth Not available.
5:55 AM 8:13 PM
Waning Crescent, 25% visible
METAR KCXP 290415Z AUTO 08006KT 10SM SCT120 29/07 A3012 RMK AO2
Pressure 30.12 in
Visibility 10.0 miles
Clouds Scattered Clouds 12000 ft
Heat Index 81 °F
Dew Point 50 °F
Humidity 33%
Rainfall 0.00 in
Snow Depth Not available.
5:55 AM 8:13 PM
Waning Crescent, 25% visible
METAR KCXP 290415Z AUTO 08006KT 10SM SCT120 29/07 A3012 RMK AO2

10-Day Weather Forecast

Almanac

Astronomy

Jul. 28, 2016 Rise Set
Actual Time
Civil Twilight
Nautical Twilight
Astronomical Twilight
Moon
Length of Visible Light
Length of Day
Tomorrow will be .
, % of the Moon is Illuminated

Today's Extremes

State Highs State Lows

Community

WunderPhotos

Upload Photos

1,928,294 photos uploaded!

WunderBlog® & News

Nearby

Air Quality

  Air Quality AQ Index Pollutant
Not available.

Snow Depth

Station Depth Elevation

Earthquake Activity

City Distance Mag. Time & Date
Minimum magnitude displayed is 2.5.

Coastal Water Temperatures

Place Temperature

Stations

Nearby Weather Stations

Station Location Temp. Windchill Dew Point Humidity Wind Precip. Elev Updated Type
                   

Watches & Warnings

Fire Weather Warning
Issued: 2:43 PM PDT Jul. 28, 2016 – National Weather Service

... Red flag warning in effect from 2 PM to 9 PM PDT Friday for
thunderstorms and strong outflow winds for portions of western
Nevada and eastern California...

The National Weather Service in Reno has issued a red flag
warning for thunderstorms and strong outflow winds, which is in
effect from 2 PM to 9 PM PDT Friday. The Fire Weather Watch is no
longer in effect.

* Affected area... fire zone 273 Mono and eastern alpine counties,
fire zone 450 western Nevada Sierra front and fire zone 459
Mineral and southern Lyon counties.

* Thunderstorms... isolated dry thunderstorms are expected to
develop Friday afternoon becoming scattered into Friday
evening.

* Outflow winds... gusts 40-50 mph are likely with locally higher
gusts over 60 mph possible in the desert areas.

* Impacts... lightning can create new fire starts and may combine
with strong outflow winds to cause a fire to rapidly grow in
size and intensity.

Precautionary/preparedness actions...

Avoid outdoor activities that can cause a spark near dry
vegetation... such as yard work... target shooting... or
campfires. Follow local fire restrictions. Check weather.Gov/Reno
for updates and livingwithfire.Info for preparedness tips.